KRME/RME METAR and TAF weather

Enter ICAO airport designator
Station Type Date Time Source
KRME METAR 2021/05/13 06:53 UTC NOAA

KRME 130653Z AUTO 00000KT 10SM CLR 01/M02 A3024 RMK AO2 SLP242 T00111017


Station Type Date Time Source
KRME Decoded METAR 2021/05/13 06:53 UTC NOAA

GRIFFISS AIRFIELD, NY, United States (KRME) 43-14N 075-24W
May 13, 2021 - 02:53 AM EDT / 2021.05.13 0653 UTC
Wind: Calm:0
Visibility: 10 mile(s):0
Sky conditions: clear
Temperature: 34.0 F (1.1 C)
Dew Point: 28.9 F (-1.7 C)
Relative Humidity: 81%
Pressure (altimeter): 30.24 in. Hg (1024 hPa)
ob: KRME 130653Z AUTO 00000KT 10SM CLR 01/M02 A3024 RMK AO2 SLP242 T00111017
cycle: 7

Station Type Date Time Source
KRME TAF 2021/05/13 06:24 UTC NOAA

TAF KRME 130521Z 1306/1406 00000KT P6SM SKC
FM131700 30008KT P6SM SCT060
FM140000 VRB03KT P6SM SKC

Example: see airport list